createdAt,value
2023-01-09T00:01:12.749Z,100.00
2023-01-09T00:03:40.502Z,100.00
2023-01-09T00:06:08.481Z,100.00
2023-01-09T00:08:36.005Z,100.00
2023-01-09T00:11:05.405Z,100.00
2023-01-09T00:13:32.961Z,100.00
2023-01-09T00:16:00.624Z,100.00
2023-01-09T00:18:28.194Z,100.00
2023-01-09T00:20:55.701Z,100.00
2023-01-09T00:23:23.234Z,100.00
2023-01-09T00:25:50.727Z,100.00
2023-01-09T00:28:19.562Z,100.00
2023-01-09T00:30:56.113Z,100.00
2023-01-09T00:33:26.633Z,100.00
2023-01-09T00:35:54.143Z,100.00
2023-01-09T00:38:21.861Z,100.00
2023-01-09T00:40:49.587Z,100.00
2023-01-09T00:43:20.125Z,100.00
2023-01-09T00:45:47.736Z,100.00
2023-01-09T00:48:24.850Z,100.00
2023-01-09T00:50:52.903Z,100.00
2023-01-09T00:53:23.293Z,100.00
2023-01-09T00:55:51.289Z,100.00
2023-01-09T00:58:20.767Z,100.00
2023-01-09T01:00:48.330Z,100.00
2023-01-09T01:03:16.077Z,100.00
2023-01-09T01:06:01.281Z,100.00
2023-01-09T01:08:28.909Z,100.00
2023-01-09T01:10:56.423Z,100.00
2023-01-09T01:13:25.257Z,100.00
2023-01-09T01:15:52.929Z,100.00
2023-01-09T01:18:20.487Z,100.00
2023-01-09T01:20:47.982Z,100.00
2023-01-09T01:23:15.555Z,100.00
2023-01-09T01:25:43.675Z,100.00
2023-01-09T01:28:11.361Z,100.00
2023-01-09T01:30:41.567Z,100.00
2023-01-09T01:33:10.433Z,100.00
2023-01-09T01:35:38.825Z,100.00
2023-01-09T01:38:06.757Z,100.00
2023-01-09T01:40:34.509Z,100.00
2023-01-09T01:43:02.081Z,100.00
2023-01-09T01:45:33.075Z,100.00
2023-01-09T01:48:06.829Z,100.00
2023-01-09T01:50:38.680Z,100.00
2023-01-09T01:53:13.115Z,100.00
2023-01-09T01:55:44.437Z,100.00
2023-01-09T01:58:15.968Z,100.00
2023-01-09T02:00:45.614Z,100.00
2023-01-09T02:03:18.701Z,100.00
2023-01-09T02:05:46.589Z,100.00
2023-01-09T02:08:14.433Z,100.00
2023-01-09T02:10:42.382Z,100.00
2023-01-09T02:13:11.095Z,100.00
2023-01-09T02:15:56.063Z,100.00
2023-01-09T02:18:52.231Z,100.00
2023-01-09T02:21:29.631Z,100.00
2023-01-09T02:24:10.752Z,100.00
2023-01-09T02:27:16.870Z,100.00
2023-01-09T02:30:26.570Z,100.00
2023-01-09T02:33:09.925Z,100.00
2023-01-09T02:35:50.927Z,100.00
2023-01-09T02:38:25.048Z,100.00
2023-01-09T02:41:01.258Z,100.00
2023-01-09T02:43:28.949Z,100.00
2023-01-09T02:45:57.881Z,100.00
2023-01-09T02:48:25.450Z,100.00
2023-01-09T02:51:02.256Z,100.00
2023-01-09T02:53:49.812Z,100.00
2023-01-09T02:56:29.693Z,100.00
2023-01-09T02:59:14.991Z,100.00
2023-01-09T03:01:55.332Z,100.00
2023-01-09T03:04:31.554Z,100.00
2023-01-09T03:07:05.278Z,100.00
2023-01-09T03:09:37.236Z,100.00
2023-01-09T03:12:12.657Z,100.00
2023-01-09T03:14:45.235Z,100.00
2023-01-09T03:17:18.349Z,100.00
2023-01-09T03:19:47.589Z,100.00
2023-01-09T03:22:15.110Z,100.00
2023-01-09T03:24:42.594Z,100.00
2023-01-09T03:27:10.251Z,100.00
2023-01-09T03:29:37.798Z,100.00
2023-01-09T03:32:05.673Z,100.00
2023-01-09T03:34:34.506Z,100.00
2023-01-09T03:37:02.017Z,100.00
2023-01-09T03:39:29.727Z,100.00
2023-01-09T03:41:57.217Z,100.00
2023-01-09T03:44:24.960Z,100.00
2023-01-09T03:46:52.490Z,100.00
2023-01-09T03:49:20.241Z,100.00
2023-01-09T03:51:49.069Z,100.00
2023-01-09T03:54:16.629Z,100.00
2023-01-09T03:56:44.185Z,100.00
2023-01-09T03:59:11.685Z,100.00
2023-01-09T04:01:39.482Z,100.00
2023-01-09T04:04:07.130Z,100.00
2023-01-09T04:06:34.715Z,100.00
2023-01-09T04:09:03.880Z,100.00
2023-01-09T04:11:31.374Z,100.00
2023-01-09T04:13:58.887Z,100.00
2023-01-09T04:16:26.437Z,100.00
2023-01-09T04:18:53.959Z,100.00
2023-01-09T04:21:21.542Z,100.00
2023-01-09T04:23:49.057Z,100.00
2023-01-09T04:26:17.898Z,100.00
2023-01-09T04:28:45.444Z,100.00
2023-01-09T04:31:13.050Z,100.00
2023-01-09T04:33:40.659Z,100.00
2023-01-09T04:36:08.957Z,100.00
2023-01-09T04:38:36.482Z,100.00
2023-01-09T04:41:03.992Z,100.00
2023-01-09T04:43:32.807Z,100.00
2023-01-09T04:46:00.380Z,100.00
2023-01-09T04:48:27.883Z,100.00
2023-01-09T04:50:55.401Z,100.00
2023-01-09T04:53:22.886Z,100.00
2023-01-09T04:55:50.436Z,100.00
2023-01-09T04:58:18.037Z,100.00
2023-01-09T05:00:46.971Z,100.00
2023-01-09T05:03:14.476Z,100.00
2023-01-09T05:05:41.979Z,100.00
2023-01-09T05:08:09.519Z,100.00
2023-01-09T05:10:37.041Z,100.00
2023-01-09T05:13:04.595Z,100.00
2023-01-09T05:15:32.177Z,100.00
2023-01-09T05:18:01.002Z,100.00
2023-01-09T05:20:28.600Z,100.00
2023-01-09T05:22:56.121Z,100.00
2023-01-09T05:25:23.668Z,100.00
2023-01-09T05:27:51.198Z,100.00
2023-01-09T05:30:19.360Z,100.00
2023-01-09T05:32:47.047Z,100.00
2023-01-09T05:35:15.967Z,100.00
2023-01-09T05:37:44.026Z,100.00
2023-01-09T05:40:12.783Z,100.00
2023-01-09T05:42:40.713Z,100.00
2023-01-09T05:45:09.528Z,100.00
2023-01-09T05:47:37.453Z,100.00
2023-01-09T05:50:05.737Z,100.00
2023-01-09T05:52:34.585Z,100.00
2023-01-09T05:55:02.110Z,100.00
2023-01-09T05:57:29.729Z,100.00
2023-01-09T05:59:57.256Z,100.00
2023-01-09T06:02:24.974Z,100.00
2023-01-09T06:04:52.587Z,100.00
2023-01-09T06:07:23.274Z,100.00
2023-01-09T06:09:52.368Z,100.00
2023-01-09T06:12:19.930Z,100.00
2023-01-09T06:14:47.460Z,100.00
2023-01-09T06:17:14.957Z,100.00
2023-01-09T06:19:42.484Z,100.00
2023-01-09T06:22:09.971Z,100.00
2023-01-09T06:24:37.478Z,100.00
2023-01-09T06:27:06.641Z,100.00
2023-01-09T06:29:34.203Z,100.00
2023-01-09T06:32:01.740Z,100.00
2023-01-09T06:34:29.315Z,100.00
2023-01-09T06:36:56.840Z,100.00
2023-01-09T06:39:24.409Z,100.00
2023-01-09T06:41:51.925Z,100.00
2023-01-09T06:44:20.834Z,100.00
2023-01-09T06:46:48.399Z,100.00
2023-01-09T06:49:17.938Z,100.00
2023-01-09T06:51:45.435Z,100.00
2023-01-09T06:54:12.982Z,100.00
2023-01-09T06:56:40.495Z,100.00
2023-01-09T06:59:08.010Z,100.00
2023-01-09T07:01:36.981Z,100.00
2023-01-09T07:04:06.170Z,100.00
2023-01-09T07:06:33.828Z,100.00
2023-01-09T07:09:01.452Z,100.00
2023-01-09T07:11:28.965Z,100.00
2023-01-09T07:13:56.528Z,100.00
2023-01-09T07:16:24.223Z,100.00
2023-01-09T07:18:54.737Z,100.00
2023-01-09T07:21:22.348Z,100.00
2023-01-09T07:23:49.951Z,100.00
2023-01-09T07:26:17.542Z,100.00
2023-01-09T07:28:45.090Z,100.00
2023-01-09T07:31:12.722Z,100.00
2023-01-09T07:33:40.392Z,100.00
2023-01-09T07:36:09.738Z,100.00
2023-01-09T07:38:38.489Z,100.00
2023-01-09T07:41:06.416Z,100.00
2023-01-09T07:43:34.041Z,100.00
2023-01-09T07:46:01.604Z,100.00
2023-01-09T07:48:29.180Z,100.00
2023-01-09T07:50:56.710Z,100.00
2023-01-09T07:53:25.611Z,100.00
2023-01-09T07:55:53.172Z,100.00
2023-01-09T07:58:20.754Z,100.00
2023-01-09T08:00:48.339Z,100.00
2023-01-09T08:03:15.865Z,100.00
2023-01-09T08:05:43.392Z,100.00
2023-01-09T08:08:10.971Z,100.00
2023-01-09T08:10:39.794Z,100.00
2023-01-09T08:13:07.271Z,100.00
2023-01-09T08:15:35.518Z,100.00
2023-01-09T08:18:03.110Z,100.00
2023-01-09T08:20:31.012Z,100.00
2023-01-09T08:22:58.539Z,100.00
2023-01-09T08:25:26.232Z,100.00
2023-01-09T08:27:55.121Z,100.00
2023-01-09T08:30:22.888Z,100.00
2023-01-09T08:32:51.651Z,100.00
2023-01-09T08:35:19.325Z,100.00
2023-01-09T08:37:47.468Z,100.00
2023-01-09T08:40:16.892Z,100.00
2023-01-09T08:43:02.562Z,100.00
2023-01-09T08:45:49.360Z,100.00
2023-01-09T08:48:17.137Z,100.00
2023-01-09T08:50:45.222Z,100.00
2023-01-09T08:53:13.203Z,100.00
2023-01-09T08:55:40.702Z,100.00
2023-01-09T08:58:08.292Z,100.00
2023-01-09T09:00:37.199Z,100.00
2023-01-09T09:03:05.117Z,100.00
2023-01-09T09:05:33.620Z,100.00
2023-01-09T09:08:02.614Z,100.00
2023-01-09T09:10:30.852Z,100.00
2023-01-09T09:13:00.144Z,100.00
2023-01-09T09:15:29.050Z,100.00
2023-01-09T09:18:00.553Z,100.00
2023-01-09T09:20:30.563Z,100.00
2023-01-09T09:22:58.419Z,100.00
2023-01-09T09:25:26.187Z,100.00
2023-01-09T09:27:55.850Z,100.00
2023-01-09T09:30:24.261Z,100.00
2023-01-09T09:32:52.008Z,100.00
2023-01-09T09:35:22.472Z,100.00
2023-01-09T09:37:57.837Z,100.00
2023-01-09T09:40:39.348Z,100.00
2023-01-09T09:43:48.217Z,100.00
2023-01-09T09:46:27.456Z,100.00
2023-01-09T09:48:58.981Z,100.00
2023-01-09T09:51:43.759Z,100.00
2023-01-09T09:54:14.965Z,100.00
2023-01-09T09:56:49.229Z,100.00
2023-01-09T09:59:19.440Z,100.00
2023-01-09T10:01:53.777Z,100.00
2023-01-09T10:04:24.322Z,100.00
2023-01-09T10:06:58.569Z,100.00
2023-01-09T10:09:37.140Z,100.00
2023-01-09T10:12:14.781Z,100.00
2023-01-09T10:14:42.533Z,100.00
2023-01-09T10:17:26.423Z,100.00
2023-01-09T10:20:32.951Z,100.00
2023-01-09T10:23:12.641Z,100.00
2023-01-09T10:25:46.466Z,100.00
2023-01-09T10:28:30.238Z,100.00
2023-01-09T10:31:01.887Z,100.00
2023-01-09T10:33:45.028Z,100.00
2023-01-09T10:36:32.630Z,100.00
2023-01-09T10:39:08.005Z,100.00
2023-01-09T10:41:42.152Z,100.00
2023-01-09T10:44:29.259Z,100.00
2023-01-09T10:46:59.230Z,100.00
2023-01-09T10:49:27.727Z,100.00
2023-01-09T10:52:05.444Z,100.00
2023-01-09T10:54:34.325Z,100.00
2023-01-09T10:57:13.715Z,100.00
2023-01-09T10:59:41.702Z,100.00
2023-01-09T11:02:26.658Z,100.00
2023-01-09T11:04:54.199Z,100.00
2023-01-09T11:07:24.679Z,100.00
2023-01-09T11:10:01.686Z,100.00
2023-01-09T11:12:31.055Z,100.00
2023-01-09T11:15:20.468Z,100.00
2023-01-09T11:17:48.778Z,100.00
2023-01-09T11:20:18.246Z,100.00
2023-01-09T11:22:48.065Z,100.00
2023-01-09T11:25:18.660Z,100.00
2023-01-09T11:28:05.882Z,100.00
2023-01-09T11:30:36.176Z,100.00
2023-01-09T11:33:15.791Z,100.00
2023-01-09T11:35:59.985Z,100.00
2023-01-09T11:38:28.450Z,100.00
2023-01-09T11:40:59.689Z,100.00
2023-01-09T11:43:34.122Z,100.00
2023-01-09T11:46:04.817Z,100.00
2023-01-09T11:48:35.957Z,100.00
2023-01-09T11:51:06.736Z,100.00
2023-01-09T11:53:49.508Z,100.00
2023-01-09T11:56:19.125Z,100.00
2023-01-09T11:58:46.825Z,100.00
2023-01-09T12:01:34.842Z,100.00
2023-01-09T12:04:19.532Z,100.00
2023-01-09T12:06:59.001Z,100.00
2023-01-09T12:09:35.863Z,100.00
2023-01-09T12:12:17.598Z,100.00
2023-01-09T12:14:58.931Z,100.00
2023-01-09T12:17:45.404Z,100.00
2023-01-09T12:20:32.551Z,100.00
2023-01-09T12:23:15.147Z,100.00
2023-01-09T12:25:52.938Z,100.00
2023-01-09T12:28:54.516Z,100.00
2023-01-09T12:31:40.789Z,100.00
2023-01-09T12:34:28.358Z,100.00
2023-01-09T12:37:11.696Z,100.00
2023-01-09T12:39:48.679Z,100.00
2023-01-09T12:42:43.208Z,99.99
2023-01-09T12:45:29.630Z,97.00
2023-01-09T12:48:08.998Z,94.40
2023-01-09T12:50:56.025Z,93.47
2023-01-09T12:53:26.856Z,91.72
2023-01-09T12:56:01.707Z,91.57
2023-01-09T12:58:35.700Z,88.89
2023-01-09T13:01:09.869Z,89.21
2023-01-09T13:03:42.728Z,88.69
2023-01-09T13:06:16.700Z,88.73
2023-01-09T13:08:51.558Z,87.22
2023-01-09T13:11:25.298Z,86.95
2023-01-09T13:13:59.248Z,87.45
2023-01-09T13:16:32.036Z,87.28
2023-01-09T13:19:06.760Z,87.71
2023-01-09T13:21:34.951Z,88.39
2023-01-09T13:24:11.754Z,89.55
2023-01-09T13:26:43.879Z,90.52
2023-01-09T13:29:18.566Z,91.16
2023-01-09T13:32:36.147Z,90.91
2023-01-09T13:35:04.835Z,90.62
2023-01-09T13:37:35.257Z,90.51
2023-01-09T13:40:04.929Z,91.46
2023-01-09T13:42:44.173Z,91.94
2023-01-09T13:45:21.280Z,92.85
2023-01-09T13:48:34.191Z,93.62
2023-01-09T13:51:39.459Z,94.28
2023-01-09T13:54:10.367Z,94.17
2023-01-09T13:57:11.386Z,94.36
2023-01-09T13:59:39.011Z,94.40
2023-01-09T14:02:47.014Z,94.01
2023-01-09T14:05:17.832Z,93.47
2023-01-09T14:07:49.302Z,93.67
2023-01-09T14:10:24.032Z,93.52
2023-01-09T14:12:55.038Z,93.44
2023-01-09T14:15:27.683Z,93.14
2023-01-09T14:18:00.445Z,93.11
2023-01-09T14:20:39.692Z,92.59
2023-01-09T14:23:42.264Z,92.80
2023-01-09T14:25:56.907Z,93.18
2023-01-09T14:28:25.944Z,93.30
2023-01-09T14:31:06.333Z,93.48
2023-01-09T14:33:33.939Z,93.08
2023-01-09T14:36:12.627Z,93.60
2023-01-09T14:38:45.117Z,93.78
2023-01-09T14:41:21.685Z,93.83
2023-01-09T14:43:57.971Z,93.74
2023-01-09T14:46:26.440Z,94.63
2023-01-09T14:49:04.477Z,94.64
2023-01-09T14:51:39.035Z,94.59
2023-01-09T14:54:20.297Z,95.01
2023-01-09T14:56:48.126Z,94.76
2023-01-09T14:59:17.385Z,94.51
2023-01-09T15:01:49.218Z,94.40
2023-01-09T15:04:28.366Z,94.49
2023-01-09T15:06:57.254Z,94.24
2023-01-09T15:09:27.977Z,94.26
2023-01-09T15:12:01.738Z,95.16
2023-01-09T15:14:35.814Z,96.61
2023-01-09T15:17:04.943Z,97.49
2023-01-09T15:19:32.932Z,98.67
2023-01-09T15:22:04.918Z,99.54
2023-01-09T15:24:34.391Z,100.00
2023-01-09T15:27:04.518Z,100.00
2023-01-09T15:29:32.268Z,100.00
2023-01-09T15:32:05.923Z,100.00
2023-01-09T15:34:34.501Z,100.00
2023-01-09T15:37:03.795Z,100.00
2023-01-09T15:39:36.497Z,100.00
2023-01-09T15:42:36.949Z,100.00
2023-01-09T15:45:05.373Z,100.00
2023-01-09T15:47:33.543Z,100.00
2023-01-09T15:50:03.905Z,100.00
2023-01-09T15:52:32.866Z,100.00
2023-01-09T15:55:00.386Z,100.00
2023-01-09T15:57:35.403Z,100.00
2023-01-09T16:00:35.087Z,100.00
2023-01-09T16:03:11.795Z,100.00
2023-01-09T16:05:44.459Z,100.00
2023-01-09T16:08:21.871Z,100.00
2023-01-09T16:10:52.886Z,100.00
2023-01-09T16:13:23.386Z,100.00
2023-01-09T16:15:52.203Z,100.00
2023-01-09T16:18:29.253Z,100.00
2023-01-09T16:21:06.637Z,100.00
2023-01-09T16:23:37.277Z,100.00
2023-01-09T16:26:07.386Z,100.00
2023-01-09T16:28:34.984Z,100.00
2023-01-09T16:31:08.093Z,100.00
2023-01-09T16:33:36.088Z,100.00
2023-01-09T16:36:05.283Z,100.00
2023-01-09T16:38:32.769Z,100.00
2023-01-09T16:41:20.946Z,100.00
2023-01-09T16:43:48.464Z,100.00
2023-01-09T16:46:17.512Z,100.00
2023-01-09T16:48:45.174Z,100.00
2023-01-09T16:51:16.817Z,100.00
2023-01-09T16:53:44.961Z,100.00
2023-01-09T16:56:21.996Z,100.00
2023-01-09T16:58:50.324Z,100.00
2023-01-09T17:01:18.159Z,100.00
2023-01-09T17:03:47.682Z,100.00
2023-01-09T17:06:19.168Z,100.00
2023-01-09T17:08:46.951Z,100.00
2023-01-09T17:11:21.591Z,100.00
2023-01-09T17:13:49.180Z,100.00
2023-01-09T17:16:18.339Z,100.00
2023-01-09T17:18:46.345Z,100.00
2023-01-09T17:21:18.333Z,100.00
2023-01-09T17:23:46.461Z,100.00
2023-01-09T17:26:39.082Z,100.00
2023-01-09T17:29:07.348Z,100.00
2023-01-09T17:31:36.869Z,100.00
2023-01-09T17:34:05.430Z,100.00
2023-01-09T17:36:34.984Z,100.00
2023-01-09T17:39:03.031Z,100.00
2023-01-09T17:41:33.519Z,100.00
2023-01-09T17:44:01.126Z,100.00
2023-01-09T17:46:32.356Z,100.00
2023-01-09T17:49:01.035Z,100.00
2023-01-09T17:51:29.283Z,100.00
2023-01-09T17:53:57.587Z,100.00
2023-01-09T17:56:27.015Z,100.00
2023-01-09T17:58:55.921Z,100.00
2023-01-09T18:01:23.773Z,100.00
2023-01-09T18:03:51.532Z,100.00
2023-01-09T18:06:22.102Z,100.00
2023-01-09T18:08:50.421Z,100.00
2023-01-09T18:11:19.849Z,100.00
2023-01-09T18:13:48.398Z,100.00
2023-01-09T18:16:19.248Z,100.00
2023-01-09T18:18:47.365Z,100.00
2023-01-09T18:21:17.905Z,100.00
2023-01-09T18:23:47.557Z,100.00
2023-01-09T18:26:20.776Z,100.00
2023-01-09T18:28:49.959Z,100.00
2023-01-09T18:31:22.726Z,100.00
2023-01-09T18:33:52.385Z,100.00
2023-01-09T18:36:21.905Z,100.00
2023-01-09T18:38:53.318Z,100.00
2023-01-09T18:41:21.658Z,100.00
2023-01-09T18:43:50.286Z,100.00
2023-01-09T18:46:23.889Z,100.00
2023-01-09T18:48:52.766Z,100.00
2023-01-09T18:51:20.915Z,100.00
2023-01-09T18:53:48.492Z,100.00
2023-01-09T18:56:16.339Z,100.00
2023-01-09T18:58:43.844Z,100.00
2023-01-09T19:01:12.024Z,100.00
2023-01-09T19:03:41.114Z,100.00
2023-01-09T19:06:09.251Z,100.00
2023-01-09T19:08:37.320Z,100.00
2023-01-09T19:11:05.735Z,100.00
2023-01-09T19:13:34.835Z,100.00
2023-01-09T19:16:03.523Z,100.00
2023-01-09T19:18:34.580Z,100.00
2023-01-09T19:21:10.664Z,100.00
2023-01-09T19:23:38.125Z,100.00
2023-01-09T19:26:08.805Z,100.00
2023-01-09T19:28:38.202Z,100.00
2023-01-09T19:31:06.051Z,100.00
2023-01-09T19:33:33.539Z,100.00
2023-01-09T19:36:01.163Z,100.00
2023-01-09T19:38:30.042Z,100.00
2023-01-09T19:40:57.533Z,100.00
2023-01-09T19:43:27.649Z,100.00
2023-01-09T19:45:56.198Z,100.00
2023-01-09T19:48:27.007Z,100.00
2023-01-09T19:51:01.292Z,100.00
2023-01-09T19:53:31.128Z,100.00
2023-01-09T19:56:10.089Z,100.00
2023-01-09T19:58:37.915Z,100.00
2023-01-09T20:01:10.708Z,100.00
2023-01-09T20:03:38.740Z,100.00
2023-01-09T20:06:08.121Z,100.00
2023-01-09T20:08:36.935Z,100.00
2023-01-09T20:11:06.578Z,100.00
2023-01-09T20:13:34.257Z,100.00
2023-01-09T20:16:03.637Z,100.00
2023-01-09T20:18:32.771Z,100.00
2023-01-09T20:21:00.653Z,100.00
2023-01-09T20:23:32.282Z,100.00
2023-01-09T20:26:01.492Z,100.00
2023-01-09T20:28:29.444Z,100.00
2023-01-09T20:30:57.040Z,100.00
2023-01-09T20:33:24.681Z,100.00
2023-01-09T20:35:52.235Z,100.00
2023-01-09T20:38:19.728Z,100.00
2023-01-09T20:40:47.441Z,100.00
2023-01-09T20:43:16.482Z,100.00
2023-01-09T20:45:44.092Z,100.00
2023-01-09T20:48:11.968Z,100.00
2023-01-09T20:50:39.543Z,100.00
2023-01-09T20:53:07.950Z,100.00
2023-01-09T20:55:36.442Z,100.00
2023-01-09T20:58:03.961Z,100.00
2023-01-09T21:00:32.837Z,100.00
2023-01-09T21:03:00.389Z,100.00
2023-01-09T21:05:27.884Z,100.00
2023-01-09T21:07:55.406Z,100.00
2023-01-09T21:10:22.994Z,100.00
2023-01-09T21:12:50.636Z,100.00
2023-01-09T21:15:19.743Z,100.00
2023-01-09T21:17:48.685Z,100.00
2023-01-09T21:20:16.375Z,100.00
2023-01-09T21:22:44.017Z,100.00
2023-01-09T21:25:11.780Z,100.00
2023-01-09T21:27:40.977Z,100.00
2023-01-09T21:30:09.947Z,100.00
2023-01-09T21:32:37.561Z,100.00
2023-01-09T21:35:07.368Z,100.00
2023-01-09T21:37:37.156Z,100.00
2023-01-09T21:40:08.544Z,100.00
2023-01-09T21:42:53.780Z,100.00
2023-01-09T21:45:38.930Z,100.00
2023-01-09T21:48:07.422Z,100.00
2023-01-09T21:50:36.403Z,100.00
2023-01-09T21:53:04.655Z,100.00
2023-01-09T21:55:32.605Z,100.00
2023-01-09T21:58:01.106Z,100.00
2023-01-09T22:00:29.606Z,100.00
2023-01-09T22:02:57.739Z,100.00
2023-01-09T22:05:27.246Z,100.00
2023-01-09T22:07:57.175Z,100.00
2023-01-09T22:10:24.690Z,100.00
2023-01-09T22:13:10.385Z,100.00
2023-01-09T22:15:37.888Z,100.00
2023-01-09T22:18:05.555Z,100.00
2023-01-09T22:20:33.107Z,100.00
2023-01-09T22:23:01.987Z,100.00
2023-01-09T22:25:29.486Z,100.00
2023-01-09T22:27:57.042Z,100.00
2023-01-09T22:30:24.526Z,100.00
2023-01-09T22:32:52.072Z,100.00
2023-01-09T22:35:19.588Z,100.00
2023-01-09T22:37:47.135Z,100.00
2023-01-09T22:40:16.377Z,100.00
2023-01-09T22:42:43.970Z,100.00
2023-01-09T22:45:12.234Z,100.00
2023-01-09T22:47:39.717Z,100.00
2023-01-09T22:50:08.633Z,100.00
2023-01-09T22:52:36.149Z,100.00
2023-01-09T22:55:03.844Z,100.00
2023-01-09T22:57:32.811Z,100.00
2023-01-09T23:00:00.300Z,100.00
2023-01-09T23:02:27.951Z,100.00
2023-01-09T23:04:58.245Z,100.00
2023-01-09T23:07:26.380Z,100.00
2023-01-09T23:09:56.215Z,100.00
2023-01-09T23:12:23.755Z,100.00
2023-01-09T23:14:52.556Z,100.00
2023-01-09T23:17:20.061Z,100.00
2023-01-09T23:19:47.565Z,100.00
2023-01-09T23:22:15.135Z,100.00
2023-01-09T23:24:42.626Z,100.00
2023-01-09T23:27:10.177Z,100.00
2023-01-09T23:29:39.781Z,100.00
2023-01-09T23:32:08.746Z,100.00
2023-01-09T23:34:36.291Z,100.00
2023-01-09T23:37:08.854Z,100.00
2023-01-09T23:39:36.543Z,100.00
2023-01-09T23:42:21.976Z,100.00
2023-01-09T23:44:49.521Z,100.00
2023-01-09T23:47:18.359Z,100.00
2023-01-09T23:49:45.831Z,100.00
2023-01-09T23:52:13.359Z,100.00
2023-01-09T23:54:40.898Z,100.00
2023-01-09T23:57:08.414Z,100.00
2023-01-09T23:59:35.888Z,100.00
